Time;durP1;ratioP1;P1;durP2;ratioP2;P2;SDS_P1;SDS_P2;PMS_P1;PMS_P2;Temp;Humidity;BMP_temperature;BMP_pressure;BME280_temperature;BME280_humidity;BME280_pressure;Samples;Min_cycle;Max_cycle;Signal;HPM_P1;HPM_P2
2024/01/26 00:00:15;;;;;;;;;;;;;;;4.28;100.00;98241.79;105730;1258;61987;-63
2024/01/26 00:02:43;;;;;;;;;;;;;;;4.32;100.00;98247.12;105744;1253;60429;-61
2024/01/26 00:05:11;;;;;;;;;;;;;;;4.27;100.00;98247.41;105685;1253;72511;-62
2024/01/26 00:07:39;;;;;;;;;;;;;;;4.20;100.00;98245.55;105696;1258;70584;-62
2024/01/26 00:10:07;;;;;;;;;;;;;;;4.09;100.00;98248.70;105736;1254;72416;-63
2024/01/26 00:12:36;;;;;;;;;;;;;;;4.20;100.00;98249.61;105630;1255;60435;-63
2024/01/26 00:15:04;;;;;;;;;;;;;;;4.20;100.00;98251.89;105567;1257;60349;-63
2024/01/26 00:17:31;;;;;;;;;;;;;;;4.18;100.00;98252.18;105590;1257;76570;-63
2024/01/26 00:19:59;;;;;;;;;;;;;;;4.06;100.00;98256.98;105566;1259;68923;-62
2024/01/26 00:22:27;;;;;;;;;;;;;;;4.09;100.00;98255.18;105484;1257;75464;-62
2024/01/26 00:24:54;;;;;;;;;;;;;;;4.16;100.00;98250.61;105409;1259;60566;-63
2024/01/26 00:27:22;;;;;;;;;;;;;;;4.08;100.00;98253.30;105580;1255;60745;-62
2024/01/26 00:29:50;;;;;;;;;;;;;;;4.22;100.00;98249.52;104978;1267;73390;-61
2024/01/26 00:32:17;;;;;;;;;;;;;;;4.23;100.00;98252.77;105575;1261;67595;-64
2024/01/26 00:34:45;;;;;;;;;;;;;;;4.20;100.00;98251.45;105665;1257;71038;-65
2024/01/26 00:37:13;;;;;;;;;;;;;;;4.17;100.00;98253.60;105685;1261;60597;-66
2024/01/26 00:39:41;;;;;;;;;;;;;;;4.16;100.00;98254.80;105445;1257;60713;-63
2024/01/26 00:42:08;;;;;;;;;;;;;;;4.24;100.00;98251.14;105627;1254;73829;-61
2024/01/26 00:44:37;;;;;;;;;;;;;;;4.22;100.00;98252.54;105687;1258;70662;-64
2024/01/26 00:47:04;;;;;;;;;;;;;;;4.34;100.00;98251.96;105793;1253;74495;-64
2024/01/26 00:49:32;;;;;;;;;;;;;;;4.26;100.00;98248.25;105628;1255;63535;-61
2024/01/26 00:52:15;;;;;;;;;;;;;;;4.15;100.00;98248.20;105656;1262;60521;-61
2024/01/26 00:54:42;;;;;;;;;;;;;;;4.08;100.00;98247.46;105772;1254;73791;-61
2024/01/26 00:57:10;;;;;;;;;;;;;;;4.16;100.00;98252.31;105678;1259;67858;-61
2024/01/26 00:59:38;;;;;;;;;;;;;;;4.16;100.00;98257.09;105668;1254;71643;-66
2024/01/26 01:02:05;;;;;;;;;;;;;;;4.18;100.00;98257.02;105738;1254;61063;-62
2024/01/26 01:04:33;;;;;;;;;;;;;;;4.06;100.00;98254.61;105744;1254;60432;-66
2024/01/26 01:07:01;;;;;;;;;;;;;;;4.10;100.00;98256.94;105776;1253;73058;-62
2024/01/26 01:09:29;;;;;;;;;;;;;;;4.13;100.00;98255.66;105791;1258;70874;-63
2024/01/26 01:11:56;;;;;;;;;;;;;;;4.13;100.00;98261.02;105625;1261;71698;-60
2024/01/26 01:14:24;;;;;;;;;;;;;;;4.14;100.00;98261.62;105784;1259;60447;-62
2024/01/26 01:16:52;;;;;;;;;;;;;;;4.16;100.00;98263.40;105774;1253;61209;-62
2024/01/26 01:19:20;;;;;;;;;;;;;;;4.09;100.00;98266.59;105710;1254;76493;-63
2024/01/26 01:21:48;;;;;;;;;;;;;;;4.09;100.00;98267.28;105779;1257;70534;-62
2024/01/26 01:24:15;;;;;;;;;;;;;;;4.07;100.00;98272.40;105746;1254;72665;-60
2024/01/26 01:26:43;;;;;;;;;;;;;;;4.18;100.00;98274.58;105739;1259;60452;-62
2024/01/26 01:29:10;;;;;;;;;;;;;;;4.13;100.00;98272.55;105754;1254;60437;-63
2024/01/26 01:31:38;;;;;;;;;;;;;;;4.17;100.00;98279.46;105573;1253;75632;-63
2024/01/26 01:34:05;;;;;;;;;;;;;;;4.07;100.00;98276.77;105815;1251;67884;-63
2024/01/26 01:36:33;;;;;;;;;;;;;;;4.15;100.00;98277.57;105912;1256;74411;-63
2024/01/26 01:39:01;;;;;;;;;;;;;;;4.22;100.00;98277.99;105874;1255;62567;-63
2024/01/26 01:41:29;;;;;;;;;;;;;;;4.18;100.00;98273.84;105799;1256;60581;-62
2024/01/26 01:43:56;;;;;;;;;;;;;;;4.11;100.00;98275.48;105659;1254;75886;-65
2024/01/26 01:46:24;;;;;;;;;;;;;;;4.19;100.00;98276.14;105816;1256;70102;-64
2024/01/26 01:48:52;;;;;;;;;;;;;;;4.13;100.00;98280.94;105879;1254;74436;-62
2024/01/26 01:51:20;;;;;;;;;;;;;;;4.18;100.00;98281.48;105914;1257;62728;-62
2024/01/26 01:53:48;;;;;;;;;;;;;;;4.19;100.00;98288.11;105733;1258;61154;-62
2024/01/26 01:56:16;;;;;;;;;;;;;;;4.24;100.00;98286.04;105980;1253;73743;-63
2024/01/26 01:58:43;;;;;;;;;;;;;;;4.13;100.00;98290.23;105645;1259;69955;-62
2024/01/26 02:01:13;;;;;;;;;;;;;;;4.11;100.00;98291.74;105893;1253;75513;-63
2024/01/26 02:03:41;;;;;;;;;;;;;;;4.21;100.00;98291.68;105902;1256;61205;-65
2024/01/26 02:06:08;;;;;;;;;;;;;;;4.07;100.00;98296.30;105927;1252;62634;-63
2024/01/26 02:08:36;;;;;;;;;;;;;;;4.08;100.00;98297.33;105985;1257;74347;-62
2024/01/26 02:11:04;;;;;;;;;;;;;;;4.10;100.00;98297.09;105833;1256;70110;-66
2024/01/26 02:13:31;;;;;;;;;;;;;;;4.17;100.00;98297.58;105865;1256;75263;-65
2024/01/26 02:15:59;;;;;;;;;;;;;;;4.19;100.00;98298.20;105913;1256;61234;-65
2024/01/26 02:18:27;;;;;;;;;;;;;;;4.16;100.00;98298.45;105929;1256;62788;-62
2024/01/26 02:20:55;;;;;;;;;;;;;;;3.94;100.00;98298.06;105856;1254;76422;-63
2024/01/26 02:23:23;;;;;;;;;;;;;;;4.03;100.00;98297.31;105617;1257;69570;-64
2024/01/26 02:25:51;;;;;;;;;;;;;;;4.11;100.00;98305.50;105584;1257;75343;-63
2024/01/26 02:28:19;;;;;;;;;;;;;;;4.14;100.00;98303.04;105438;1257;63560;-63
2024/01/26 02:30:46;;;;;;;;;;;;;;;4.17;100.00;98309.78;105583;1257;61340;-62
2024/01/26 02:33:14;;;;;;;;;;;;;;;4.31;99.88;98310.86;105617;1261;77404;-63
2024/01/26 02:35:42;;;;;;;;;;;;;;;4.19;100.00;98308.50;105683;1257;69406;-66
2024/01/26 02:38:10;;;;;;;;;;;;;;;4.03;100.00;98311.02;105666;1262;73091;-62
2024/01/26 02:40:38;;;;;;;;;;;;;;;4.15;100.00;98316.70;105632;1257;63072;-62
2024/01/26 02:43:06;;;;;;;;;;;;;;;4.16;100.00;98319.50;105630;1255;61458;-70
2024/01/26 02:45:33;;;;;;;;;;;;;;;4.08;99.84;98321.29;105459;1257;77247;-65
2024/01/26 02:48:01;;;;;;;;;;;;;;;4.12;99.97;98320.33;105483;1262;68432;-64
2024/01/26 02:50:29;;;;;;;;;;;;;;;4.11;99.83;98323.34;105666;1257;74275;-69
2024/01/26 02:52:57;;;;;;;;;;;;;;;4.06;100.00;98323.95;105560;1262;61244;-60
2024/01/26 02:55:24;;;;;;;;;;;;;;;4.11;99.81;98320.52;105296;1257;61320;-64
2024/01/26 02:57:52;;;;;;;;;;;;;;;3.87;100.00;98322.32;105203;1257;75103;-61
2024/01/26 03:00:20;;;;;;;;;;;;;;;3.96;100.00;98329.52;105327;1260;70332;-67
2024/01/26 03:02:47;;;;;;;;;;;;;;;3.99;100.00;98327.30;105791;1254;75295;-63
2024/01/26 03:05:15;;;;;;;;;;;;;;;4.02;100.00;98327.15;105782;1259;61343;-68
2024/01/26 03:07:43;;;;;;;;;;;;;;;4.01;100.00;98326.05;105850;1255;62582;-65
2024/01/26 03:10:11;;;;;;;;;;;;;;;3.95;100.00;98325.64;105732;1255;75973;-66
2024/01/26 03:12:38;;;;;;;;;;;;;;;3.95;100.00;98331.70;105829;1259;68772;-62
2024/01/26 03:15:06;;;;;;;;;;;;;;;3.88;100.00;98334.33;105714;1258;72080;-62
2024/01/26 03:17:34;;;;;;;;;;;;;;;3.78;100.00;98334.48;105813;1259;61270;-62
2024/01/26 03:20:02;;;;;;;;;;;;;;;3.73;100.00;98339.94;105763;1254;61220;-62
2024/01/26 03:22:30;;;;;;;;;;;;;;;3.82;100.00;98341.58;105719;1254;73810;-62
2024/01/26 03:24:58;;;;;;;;;;;;;;;3.86;100.00;98343.90;105633;1259;68991;-62
2024/01/26 03:27:27;;;;;;;;;;;;;;;3.80;100.00;98342.95;105603;1263;74077;-66
2024/01/26 03:29:55;;;;;;;;;;;;;;;3.84;100.00;98348.55;105378;1259;62888;-62
2024/01/26 03:32:23;;;;;;;;;;;;;;;3.89;100.00;98347.58;105406;1257;61304;-64
2024/01/26 03:34:50;;;;;;;;;;;;;;;3.76;100.00;98343.75;105588;1257;75648;-65
2024/01/26 03:37:19;;;;;;;;;;;;;;;3.73;100.00;98346.77;105616;1259;70491;-65
2024/01/26 03:39:46;;;;;;;;;;;;;;;3.72;100.00;98350.30;105584;1261;75000;-64
2024/01/26 03:42:14;;;;;;;;;;;;;;;3.86;100.00;98359.20;105490;1257;61359;-64
2024/01/26 03:44:42;;;;;;;;;;;;;;;4.00;100.00;98360.19;105459;1259;61496;-63
2024/01/26 03:47:10;;;;;;;;;;;;;;;3.90;100.00;98360.22;105320;1260;74495;-63
2024/01/26 03:49:44;;;;;;;;;;;;;;;3.90;100.00;98365.70;105322;1260;70392;-64
2024/01/26 03:52:12;;;;;;;;;;;;;;;3.97;100.00;98369.48;105308;1260;74587;-62
2024/01/26 03:54:40;;;;;;;;;;;;;;;3.98;100.00;98365.79;105309;1259;62733;-64
2024/01/26 03:57:08;;;;;;;;;;;;;;;3.91;100.00;98367.30;105460;1257;61342;-62
2024/01/26 03:59:36;;;;;;;;;;;;;;;3.87;100.00;98369.05;105262;1256;76154;-62
2024/01/26 04:02:04;;;;;;;;;;;;;;;3.97;100.00;98370.64;105462;1262;69201;-64
2024/01/26 04:04:31;;;;;;;;;;;;;;;3.80;100.00;98368.77;105327;1259;74029;-62
2024/01/26 04:06:59;;;;;;;;;;;;;;;3.81;100.00;98374.19;105194;1267;63693;-61
2024/01/26 04:09:27;;;;;;;;;;;;;;;3.86;100.00;98374.96;105574;1257;61371;-62
2024/01/26 04:11:55;;;;;;;;;;;;;;;4.04;100.00;98381.76;105436;1257;76414;-62
2024/01/26 04:14:22;;;;;;;;;;;;;;;3.95;100.00;98381.98;105653;1259;68787;-62
2024/01/26 04:16:50;;;;;;;;;;;;;;;3.88;100.00;98387.33;105736;1254;73449;-65
2024/01/26 04:19:19;;;;;;;;;;;;;;;3.92;100.00;98389.46;105776;1254;64454;-62
2024/01/26 04:21:49;;;;;;;;;;;;;;;4.01;100.00;98391.65;105647;1253;61310;-63
2024/01/26 04:24:18;;;;;;;;;;;;;;;4.02;100.00;98393.94;105590;1259;76641;-62
2024/01/26 04:26:45;;;;;;;;;;;;;;;3.98;100.00;98397.16;105590;1254;67106;-61
2024/01/26 04:29:13;;;;;;;;;;;;;;;3.98;100.00;98398.02;105829;1257;71541;-63
2024/01/26 04:31:41;;;;;;;;;;;;;;;3.97;100.00;98395.39;105595;1262;62876;-62
2024/01/26 04:34:09;;;;;;;;;;;;;;;3.88;100.00;98400.33;105415;1257;61408;-62
2024/01/26 04:36:37;;;;;;;;;;;;;;;3.81;100.00;98404.33;105497;1255;75571;-62
2024/01/26 04:39:05;;;;;;;;;;;;;;;3.90;100.00;98406.20;105555;1260;68655;-63
2024/01/26 04:41:32;;;;;;;;;;;;;;;3.95;100.00;98410.13;105613;1260;72347;-63
2024/01/26 04:44:00;;;;;;;;;;;;;;;3.97;100.00;98412.71;105653;1258;61311;-62
2024/01/26 04:46:28;;;;;;;;;;;;;;;3.91;100.00;98419.34;105450;1257;61426;-62
2024/01/26 04:48:55;;;;;;;;;;;;;;;3.92;100.00;98420.55;105563;1255;75779;-66
2024/01/26 04:51:23;;;;;;;;;;;;;;;3.91;100.00;98422.11;105601;1262;70604;-69
2024/01/26 04:53:51;;;;;;;;;;;;;;;4.01;100.00;98425.31;105526;1259;72080;-69
2024/01/26 04:56:20;;;;;;;;;;;;;;;4.05;100.00;98426.70;105547;1262;61292;-71
2024/01/26 04:58:48;;;;;;;;;;;;;;;3.95;100.00;98427.48;105378;1257;61323;-69
2024/01/26 05:01:16;;;;;;;;;;;;;;;4.00;100.00;98430.13;105273;1264;74199;-68
2024/01/26 05:03:43;;;;;;;;;;;;;;;4.00;100.00;98440.84;105384;1257;69850;-64
2024/01/26 05:06:12;;;;;;;;;;;;;;;3.97;100.00;98439.58;105209;1263;72583;-64
2024/01/26 05:08:40;;;;;;;;;;;;;;;4.06;100.00;98443.08;105056;1263;61257;-59
2024/01/26 05:11:08;;;;;;;;;;;;;;;3.89;100.00;98444.79;105318;1257;61323;-63
2024/01/26 05:13:35;;;;;;;;;;;;;;;3.89;100.00;98445.12;105681;1257;73990;-65
2024/01/26 05:16:03;;;;;;;;;;;;;;;3.80;100.00;98445.20;105546;1262;71154;-66
2024/01/26 05:18:31;;;;;;;;;;;;;;;3.87;100.00;98449.73;105531;1257;73762;-64
2024/01/26 05:20:59;;;;;;;;;;;;;;;3.97;100.00;98452.90;105587;1261;62717;-68
2024/01/26 05:23:27;;;;;;;;;;;;;;;3.93;100.00;98455.32;105350;1257;61157;-66
2024/01/26 05:25:54;;;;;;;;;;;;;;;4.04;100.00;98463.86;105744;1254;77338;-65
2024/01/26 05:28:22;;;;;;;;;;;;;;;4.08;100.00;98467.23;105878;1254;69848;-62
2024/01/26 05:30:50;;;;;;;;;;;;;;;4.02;100.00;98469.51;105817;1257;73109;-64
2024/01/26 05:33:18;;;;;;;;;;;;;;;3.93;100.00;98470.40;105845;1251;62926;-64
2024/01/26 05:35:47;;;;;;;;;;;;;;;3.99;100.00;98476.10;105761;1254;61593;-64
2024/01/26 05:38:14;;;;;;;;;;;;;;;3.88;100.00;98471.52;105859;1252;72998;-64
2024/01/26 05:40:42;;;;;;;;;;;;;;;4.01;100.00;98478.79;105930;1257;70720;-62
2024/01/26 05:43:10;;;;;;;;;;;;;;;4.01;100.00;98479.95;105912;1257;73063;-62
2024/01/26 05:45:38;;;;;;;;;;;;;;;4.07;100.00;98484.06;105931;1255;61350;-64
2024/01/26 05:48:06;;;;;;;;;;;;;;;4.07;100.00;98489.52;105832;1257;61406;-62
2024/01/26 05:50:35;;;;;;;;;;;;;;;4.05;100.00;98493.05;105890;1255;73662;-63
2024/01/26 05:53:03;;;;;;;;;;;;;;;3.80;100.00;98494.50;105656;1257;69695;-62
2024/01/26 05:55:31;;;;;;;;;;;;;;;3.89;100.00;98501.02;105421;1258;75669;-64
2024/01/26 05:57:58;;;;;;;;;;;;;;;3.88;100.00;98500.73;105431;1254;61328;-67
2024/01/26 06:00:26;;;;;;;;;;;;;;;3.77;100.00;98510.28;105521;1259;61323;-64
2024/01/26 06:02:54;;;;;;;;;;;;;;;3.79;100.00;98511.92;105680;1254;77532;-68
2024/01/26 06:05:22;;;;;;;;;;;;;;;3.76;100.00;98511.42;105626;1260;68840;-63
2024/01/26 06:07:49;;;;;;;;;;;;;;;3.85;100.00;98521.33;105633;1258;72543;-63
2024/01/26 06:10:17;;;;;;;;;;;;;;;3.85;100.00;98524.01;105299;1260;61733;-61
2024/01/26 06:12:45;;;;;;;;;;;;;;;3.77;100.00;98523.23;105680;1254;61219;-61
2024/01/26 06:15:13;;;;;;;;;;;;;;;3.83;100.00;98531.52;105687;1259;74001;-62
2024/01/26 06:17:41;;;;;;;;;;;;;;;3.84;100.00;98525.02;105612;1260;69580;-62
2024/01/26 06:20:11;;;;;;;;;;;;;;;3.79;100.00;98534.91;105501;1255;72901;-61
2024/01/26 06:22:38;;;;;;;;;;;;;;;3.93;100.00;98541.88;105514;1263;61336;-62
2024/01/26 06:25:06;;;;;;;;;;;;;;;4.00;100.00;98549.19;105655;1254;61367;-62
2024/01/26 06:27:34;;;;;;;;;;;;;;;4.02;100.00;98553.69;105603;1254;77402;-64
2024/01/26 06:30:02;;;;;;;;;;;;;;;3.92;100.00;98557.61;105448;1260;68724;-64
2024/01/26 06:32:29;;;;;;;;;;;;;;;3.85;100.00;98559.98;105711;1254;73514;-63
2024/01/26 06:34:57;;;;;;;;;;;;;;;3.96;100.00;98564.39;105854;1258;61228;-62
2024/01/26 06:37:26;;;;;;;;;;;;;;;3.89;100.00;98568.09;105572;1262;62994;-63
2024/01/26 06:39:55;;;;;;;;;;;;;;;4.06;100.00;98573.84;105823;1254;76459;-63
2024/01/26 06:42:25;;;;;;;;;;;;;;;4.19;100.00;98576.80;105827;1257;68658;-63
2024/01/26 06:44:53;;;;;;;;;;;;;;;4.12;100.00;98583.09;105821;1256;71983;-66
2024/01/26 06:47:21;;;;;;;;;;;;;;;4.22;100.00;98590.35;105841;1258;61214;-64
2024/01/26 06:49:49;;;;;;;;;;;;;;;4.26;100.00;98595.58;105656;1254;61530;-63
2024/01/26 06:52:17;;;;;;;;;;;;;;;4.20;100.00;98595.41;105761;1258;74228;-62
2024/01/26 06:54:44;;;;;;;;;;;;;;;4.25;100.00;98599.39;105858;1259;69338;-64
2024/01/26 06:57:12;;;;;;;;;;;;;;;4.35;100.00;98605.04;105854;1254;73846;-64
2024/01/26 06:59:40;;;;;;;;;;;;;;;4.27;100.00;98606.88;105870;1256;61546;-62
2024/01/26 07:02:08;;;;;;;;;;;;;;;4.31;100.00;98609.45;105895;1266;61431;-63
2024/01/26 07:04:35;;;;;;;;;;;;;;;4.22;100.00;98614.21;105903;1257;77206;-62
2024/01/26 07:07:03;;;;;;;;;;;;;;;4.28;100.00;98613.73;105922;1257;68892;-64
2024/01/26 07:09:31;;;;;;;;;;;;;;;4.20;100.00;98615.39;105649;1260;72487;-62
2024/01/26 07:11:59;;;;;;;;;;;;;;;4.12;100.00;98617.25;105916;1256;61247;-63
2024/01/26 07:14:26;;;;;;;;;;;;;;;4.14;100.00;98624.35;105923;1257;61542;-62
2024/01/26 07:16:54;;;;;;;;;;;;;;;4.16;100.00;98624.86;105907;1256;72786;-63
2024/01/26 07:19:21;;;;;;;;;;;;;;;4.34;100.00;98630.98;105736;1260;70913;-63
2024/01/26 07:21:49;;;;;;;;;;;;;;;4.39;100.00;98635.36;105916;1259;72232;-64
2024/01/26 07:24:17;;;;;;;;;;;;;;;4.31;100.00;98637.77;105902;1256;61214;-63
2024/01/26 07:26:46;;;;;;;;;;;;;;;4.38;100.00;98644.65;105912;1251;61378;-64
2024/01/26 07:29:14;;;;;;;;;;;;;;;4.34;100.00;98649.03;105792;1255;75407;-64
2024/01/26 07:31:41;;;;;;;;;;;;;;;4.22;100.00;98644.17;105667;1259;69143;-63
2024/01/26 07:34:09;;;;;;;;;;;;;;;4.25;100.00;98655.80;105595;1260;71398;-64
2024/01/26 07:36:37;;;;;;;;;;;;;;;4.26;100.00;98657.05;105593;1259;61222;-62
2024/01/26 07:39:07;;;;;;;;;;;;;;;4.11;100.00;98654.50;105622;1257;61197;-62
2024/01/26 07:41:36;;;;;;;;;;;;;;;4.20;100.00;98662.93;105676;1259;73359;-63
2024/01/26 07:44:03;;;;;;;;;;;;;;;4.21;100.00;98662.54;105674;1260;67624;-62
2024/01/26 07:46:32;;;;;;;;;;;;;;;4.39;100.00;98667.73;105672;1257;72138;-64
2024/01/26 07:49:00;;;;;;;;;;;;;;;4.32;100.00;98662.64;105683;1259;62721;-62
2024/01/26 07:51:29;;;;;;;;;;;;;;;4.37;100.00;98675.67;105648;1259;61225;-66
2024/01/26 07:53:56;;;;;;;;;;;;;;;4.35;100.00;98678.29;105672;1259;77344;-63
2024/01/26 07:56:24;;;;;;;;;;;;;;;4.34;100.00;98682.34;105531;1262;67373;-62
2024/01/26 07:58:51;;;;;;;;;;;;;;;4.38;100.00;98686.52;105254;1263;71843;-66
2024/01/26 08:01:19;;;;;;;;;;;;;;;4.45;100.00;98691.87;105357;1261;61348;-64
2024/01/26 08:03:47;;;;;;;;;;;;;;;4.56;100.00;98696.02;105259;1263;61318;-64
2024/01/26 08:06:17;;;;;;;;;;;;;;;4.58;100.00;98698.67;105469;1261;74452;-65
2024/01/26 08:08:45;;;;;;;;;;;;;;;4.51;100.00;98700.17;105464;1262;70627;-62
2024/01/26 08:11:13;;;;;;;;;;;;;;;4.46;100.00;98707.48;105581;1262;72491;-63
2024/01/26 08:13:41;;;;;;;;;;;;;;;4.50;100.00;98713.23;105270;1263;61272;-62
2024/01/26 08:16:13;;;;;;;;;;;;;;;4.56;100.00;98716.91;105648;1261;61324;-62
2024/01/26 08:18:41;;;;;;;;;;;;;;;4.43;100.00;98715.91;105643;1263;75025;-64
2024/01/26 08:21:10;;;;;;;;;;;;;;;4.45;100.00;98719.84;105607;1261;67701;-63
2024/01/26 08:23:38;;;;;;;;;;;;;;;4.40;100.00;98719.19;105587;1262;72032;-63
2024/01/26 08:26:06;;;;;;;;;;;;;;;4.37;100.00;98725.61;105246;1267;61411;-63
2024/01/26 08:28:34;;;;;;;;;;;;;;;4.37;100.00;98729.17;105835;1261;61266;-66
2024/01/26 08:31:02;;;;;;;;;;;;;;;4.39;100.00;98733.52;105852;1260;74020;-64
2024/01/26 08:33:30;;;;;;;;;;;;;;;4.27;100.00;98736.84;105651;1257;69581;-69
2024/01/26 08:35:58;;;;;;;;;;;;;;;4.29;100.00;98734.20;105954;1254;72461;-61
2024/01/26 08:38:26;;;;;;;;;;;;;;;4.37;100.00;98738.63;105955;1256;61330;-63
2024/01/26 08:40:54;;;;;;;;;;;;;;;4.58;100.00;98740.39;105753;1255;61222;-63
2024/01/26 08:43:21;;;;;;;;;;;;;;;4.60;100.00;98746.86;105828;1253;74429;-65
2024/01/26 08:45:49;;;;;;;;;;;;;;;4.58;100.00;98753.27;105886;1259;68775;-63
2024/01/26 08:48:16;;;;;;;;;;;;;;;4.44;100.00;98752.23;105583;1258;156436;-65
2024/01/26 08:50:45;;;;;;;;;;;;;;;4.57;100.00;98758.27;105716;1259;61292;-62
2024/01/26 08:53:13;;;;;;;;;;;;;;;4.72;100.00;98758.55;105949;1257;61336;-64
2024/01/26 08:55:40;;;;;;;;;;;;;;;4.75;100.00;98760.58;105851;1254;76458;-65
2024/01/26 08:58:08;;;;;;;;;;;;;;;4.70;100.00;98762.92;105633;1257;70540;-64
2024/01/26 09:00:36;;;;;;;;;;;;;;;4.71;100.00;98768.79;105871;1257;72876;-64
2024/01/26 09:03:04;;;;;;;;;;;;;;;4.83;100.00;98776.54;105653;1260;61602;-63
2024/01/26 09:05:31;;;;;;;;;;;;;;;4.86;100.00;98779.15;105783;1260;61221;-62
2024/01/26 09:07:59;;;;;;;;;;;;;;;4.78;100.00;98776.43;105703;1254;74026;-63
2024/01/26 09:10:27;;;;;;;;;;;;;;;4.74;100.00;98780.73;105851;1256;67759;-63
2024/01/26 09:12:54;;;;;;;;;;;;;;;4.75;100.00;98778.66;105852;1258;75711;-64
2024/01/26 09:15:22;;;;;;;;;;;;;;;4.46;100.00;98782.31;105598;1258;61456;-64
2024/01/26 09:17:50;;;;;;;;;;;;;;;4.66;100.00;98787.88;105825;1257;61249;-66
2024/01/26 09:20:17;;;;;;;;;;;;;;;4.68;100.00;98787.02;105806;1257;74622;-63
2024/01/26 09:22:45;;;;;;;;;;;;;;;4.70;100.00;98787.38;105705;1257;66472;-62
2024/01/26 09:25:13;;;;;;;;;;;;;;;4.56;100.00;98782.26;105626;1260;71266;-64
2024/01/26 09:27:41;;;;;;;;;;;;;;;4.53;100.00;98788.39;105588;1259;64060;-64
2024/01/26 09:30:09;;;;;;;;;;;;;;;4.59;100.00;98794.26;105701;1253;61958;-64
2024/01/26 09:32:37;;;;;;;;;;;;;;;4.72;100.00;98791.68;105821;1253;73868;-63
2024/01/26 09:35:06;;;;;;;;;;;;;;;4.87;100.00;98800.07;105674;1257;70328;-65
2024/01/26 09:37:34;;;;;;;;;;;;;;;4.74;100.00;98795.98;105672;1257;74138;-65
2024/01/26 09:40:02;;;;;;;;;;;;;;;4.57;100.00;98796.83;105915;1253;62994;-63
2024/01/26 09:42:30;;;;;;;;;;;;;;;4.51;100.00;98801.07;105717;1259;61214;-64
2024/01/26 09:44:57;;;;;;;;;;;;;;;4.74;100.00;98805.06;105878;1257;75129;-64
2024/01/26 09:47:25;;;;;;;;;;;;;;;4.64;100.00;98804.80;105742;1257;71120;-64
2024/01/26 09:49:56;;;;;;;;;;;;;;;4.60;100.00;98807.89;105772;1256;71999;-64
2024/01/26 09:52:24;;;;;;;;;;;;;;;4.82;100.00;98808.35;105689;1254;62638;-65
2024/01/26 09:54:51;;;;;;;;;;;;;;;4.84;100.00;98804.05;105785;1254;61339;-63
2024/01/26 09:57:20;;;;;;;;;;;;;;;4.84;100.00;98802.54;105666;1261;75681;-64
2024/01/26 09:59:50;;;;;;;;;;;;;;;4.84;100.00;98808.02;105770;1259;67958;-67
2024/01/26 10:02:18;;;;;;;;;;;;;;;4.71;100.00;98805.48;105696;1257;72115;-64
2024/01/26 10:04:46;;;;;;;;;;;;;;;4.89;100.00;98808.66;105676;1259;61366;-64
2024/01/26 10:07:17;;;;;;;;;;;;;;;4.90;100.00;98809.55;105691;1254;61384;-63
2024/01/26 10:09:45;;;;;;;;;;;;;;;4.80;100.00;98815.55;105744;1254;72616;-64
2024/01/26 10:12:12;;;;;;;;;;;;;;;4.82;100.00;98816.08;105736;1259;69598;-68
2024/01/26 10:14:40;;;;;;;;;;;;;;;4.86;100.00;98821.00;105625;1254;73428;-64
2024/01/26 10:17:08;;;;;;;;;;;;;;;4.85;100.00;98822.95;105895;1258;62459;-64
2024/01/26 10:19:36;;;;;;;;;;;;;;;4.67;100.00;98823.10;105897;1256;61237;-65
2024/01/26 10:22:06;;;;;;;;;;;;;;;4.74;100.00;98820.80;105725;1257;76298;-65
2024/01/26 10:24:34;;;;;;;;;;;;;;;4.74;100.00;98820.96;105932;1256;68821;-67
2024/01/26 10:27:01;;;;;;;;;;;;;;;4.67;100.00;98818.77;105884;1257;73280;-64
2024/01/26 10:29:29;;;;;;;;;;;;;;;4.63;100.00;98819.45;105912;1256;61152;-68
2024/01/26 10:31:57;;;;;;;;;;;;;;;4.77;100.00;98823.52;105798;1260;61221;-62
2024/01/26 10:34:25;;;;;;;;;;;;;;;4.90;100.00;98827.89;105766;1257;74565;-65
2024/01/26 10:36:53;;;;;;;;;;;;;;;4.95;100.00;98828.10;105922;1257;68271;-67
2024/01/26 10:39:28;;;;;;;;;;;;;;;4.72;100.00;98826.61;105875;1254;75182;-64
2024/01/26 10:42:03;;;;;;;;;;;;;;;4.70;100.00;98833.36;105891;1253;61259;-65
2024/01/26 10:44:34;;;;;;;;;;;;;;;4.79;100.00;98832.08;105771;1254;61330;-64
2024/01/26 10:47:04;;;;;;;;;;;;;;;4.99;100.00;98834.46;105953;1254;73327;-65
2024/01/26 10:49:32;;;;;;;;;;;;;;;4.96;100.00;98839.08;106024;1257;68352;-63
2024/01/26 10:52:00;;;;;;;;;;;;;;;4.90;100.00;98841.09;105973;1252;73499;-63
2024/01/26 10:54:28;;;;;;;;;;;;;;;4.99;100.00;98841.10;105928;1258;61198;-64
2024/01/26 10:56:55;;;;;;;;;;;;;;;5.07;100.00;98837.11;105754;1255;61725;-64
2024/01/26 10:59:24;;;;;;;;;;;;;;;4.90;100.00;98838.17;105609;1256;77356;-68
2024/01/26 11:01:52;;;;;;;;;;;;;;;4.81;100.00;98841.63;106121;1257;69132;-63
2024/01/26 11:07:38;;;;;;;;;;;;;;;5.08;100.00;98850.06;102887;1290;599500;-67
2024/01/26 11:10:07;;;;;;;;;;;;;;;5.03;100.00;98851.45;104876;1267;61847;-63
2024/01/26 11:12:34;;;;;;;;;;;;;;;5.09;100.00;98857.17;104856;1267;59556;-64
2024/01/26 11:15:05;;;;;;;;;;;;;;;4.83;100.00;98849.56;104887;1267;73723;-67
2024/01/26 11:18:00;;;;;;;;;;;;;;;4.85;100.00;98852.09;104901;1270;69570;-62
2024/01/26 11:20:30;;;;;;;;;;;;;;;4.83;100.00;98856.52;104488;1276;155632;-63
2024/01/26 11:22:58;;;;;;;;;;;;;;;4.99;100.00;98863.08;104693;1270;60910;-64
2024/01/26 11:25:26;;;;;;;;;;;;;;;4.92;100.00;98861.49;104578;1276;59583;-64
2024/01/26 11:27:57;;;;;;;;;;;;;;;4.97;100.00;98867.39;104291;1273;72416;-65
2024/01/26 11:30:25;;;;;;;;;;;;;;;4.95;100.00;98860.91;104549;1278;68852;-64
2024/01/26 11:32:53;;;;;;;;;;;;;;;4.99;100.00;98868.48;104531;1276;71486;-65
2024/01/26 11:35:21;;;;;;;;;;;;;;;4.95;100.00;98869.06;104564;1277;60709;-66
2024/01/26 11:37:50;;;;;;;;;;;;;;;4.94;100.00;98870.84;104549;1272;59629;-63
2024/01/26 11:40:19;;;;;;;;;;;;;;;4.93;100.00;98874.42;104534;1273;74674;-66
2024/01/26 11:42:48;;;;;;;;;;;;;;;4.65;100.00;98869.84;104579;1272;71211;-64
2024/01/26 11:45:36;;;;;;;;;;;;;;;4.62;100.00;98872.59;104595;1272;74482;-63
2024/01/26 11:48:07;;;;;;;;;;;;;;;4.89;100.00;98884.67;104533;1278;60573;-62
2024/01/26 11:50:44;;;;;;;;;;;;;;;4.90;100.00;98887.23;104576;1273;62547;-64
2024/01/26 11:53:13;;;;;;;;;;;;;;;4.77;100.00;98885.05;104398;1272;73844;-65
2024/01/26 11:55:41;;;;;;;;;;;;;;;4.88;100.00;98887.27;104483;1276;67274;-65
2024/01/26 11:58:09;;;;;;;;;;;;;;;5.04;100.00;98896.26;104961;1263;75352;-63
2024/01/26 12:00:38;;;;;;;;;;;;;;;5.09;100.00;98899.56;104855;1269;62689;-62
2024/01/26 12:03:06;;;;;;;;;;;;;;;5.08;100.00;98903.55;105457;1257;59654;-62
2024/01/26 12:05:34;;;;;;;;;;;;;;;5.14;100.00;98904.04;105701;1254;72627;-62
2024/01/26 12:08:04;;;;;;;;;;;;;;;5.05;100.00;98904.21;105736;1260;69657;-68
2024/01/26 12:10:35;;;;;;;;;;;;;;;4.89;100.00;98908.13;105262;1264;74420;-62
2024/01/26 12:13:03;;;;;;;;;;;;;;;4.97;100.00;98911.15;105629;1260;60422;-65
2024/01/26 12:15:37;;;;;;;;;;;;;;;4.96;100.00;98917.84;105633;1260;60454;-70
2024/01/26 12:18:09;;;;;;;;;;;;;;;5.16;100.00;98924.07;105631;1257;72434;-68
2024/01/26 12:20:38;;;;;;;;;;;;;;;5.00;100.00;98918.35;105646;1258;68443;-74
2024/01/26 12:23:16;;;;;;;;;;;;;;;4.86;100.00;98925.51;105581;1257;74092;-68
2024/01/26 12:25:44;;;;;;;;;;;;;;;4.80;100.00;98922.87;105363;1259;59850;-67
2024/01/26 12:28:14;;;;;;;;;;;;;;;4.66;100.00;98927.37;105111;1260;59763;-64
2024/01/26 12:30:46;;;;;;;;;;;;;;;4.62;100.00;98927.39;105025;1259;74933;-64
2024/01/26 12:33:15;;;;;;;;;;;;;;;4.59;100.00;98934.47;105130;1263;67948;-64
2024/01/26 12:35:46;;;;;;;;;;;;;;;4.90;100.00;98938.09;105557;1260;73440;-65
2024/01/26 12:38:13;;;;;;;;;;;;;;;4.75;100.00;98927.11;105626;1257;63234;-71
2024/01/26 12:40:41;;;;;;;;;;;;;;;4.88;100.00;98939.10;105443;1263;59664;-66
2024/01/26 12:43:09;;;;;;;;;;;;;;;4.88;100.00;98942.53;105479;1257;73278;-68